sensor_id;sensor_type;location;lat;lon;timestamp;P1;durP1;ratioP1;P2;durP2;ratioP2
29500;SDS011;16450;50.288;10.966;2023-04-30T00:00:07;19.00;;;12.60;;
29500;SDS011;16450;50.288;10.966;2023-04-30T00:03:10;22.17;;;13.80;;
29500;SDS011;16450;50.288;10.966;2023-04-30T00:06:12;16.40;;;12.43;;
29500;SDS011;16450;50.288;10.966;2023-04-30T00:09:14;18.60;;;12.80;;
29500;SDS011;16450;50.288;10.966;2023-04-30T00:12:16;18.87;;;13.07;;
29500;SDS011;16450;50.288;10.966;2023-04-30T00:15:18;18.97;;;13.17;;
29500;SDS011;16450;50.288;10.966;2023-04-30T00:18:19;16.73;;;12.17;;
29500;SDS011;16450;50.288;10.966;2023-04-30T00:21:21;17.93;;;13.20;;
29500;SDS011;16450;50.288;10.966;2023-04-30T00:24:23;20.70;;;13.30;;
29500;SDS011;16450;50.288;10.966;2023-04-30T00:27:25;19.53;;;12.77;;
29500;SDS011;16450;50.288;10.966;2023-04-30T00:30:28;20.90;;;13.27;;
29500;SDS011;16450;50.288;10.966;2023-04-30T00:33:30;17.73;;;12.47;;
29500;SDS011;16450;50.288;10.966;2023-04-30T00:36:32;19.50;;;13.17;;
29500;SDS011;16450;50.288;10.966;2023-04-30T00:39:34;18.63;;;13.50;;
29500;SDS011;16450;50.288;10.966;2023-04-30T00:42:36;20.97;;;13.27;;
29500;SDS011;16450;50.288;10.966;2023-04-30T00:45:37;18.33;;;12.63;;
29500;SDS011;16450;50.288;10.966;2023-04-30T00:48:39;17.83;;;12.67;;
29500;SDS011;16450;50.288;10.966;2023-04-30T00:51:42;18.40;;;13.13;;
29500;SDS011;16450;50.288;10.966;2023-04-30T00:54:44;17.90;;;12.17;;
29500;SDS011;16450;50.288;10.966;2023-04-30T00:57:46;18.37;;;12.83;;
29500;SDS011;16450;50.288;10.966;2023-04-30T01:00:49;19.03;;;13.03;;
29500;SDS011;16450;50.288;10.966;2023-04-30T01:03:51;17.87;;;12.47;;
29500;SDS011;16450;50.288;10.966;2023-04-30T01:06:53;20.43;;;13.10;;
29500;SDS011;16450;50.288;10.966;2023-04-30T01:09:55;17.57;;;12.83;;
29500;SDS011;16450;50.288;10.966;2023-04-30T01:13:00;19.10;;;12.87;;
29500;SDS011;16450;50.288;10.966;2023-04-30T01:16:12;20.00;;;13.07;;
29500;SDS011;16450;50.288;10.966;2023-04-30T01:19:45;20.10;;;13.50;;
29500;SDS011;16450;50.288;10.966;2023-04-30T01:26:19;18.97;;;12.87;;
29500;SDS011;16450;50.288;10.966;2023-04-30T01:29:29;22.10;;;14.23;;
29500;SDS011;16450;50.288;10.966;2023-04-30T01:32:32;20.67;;;14.90;;
29500;SDS011;16450;50.288;10.966;2023-04-30T01:35:37;21.17;;;14.80;;
29500;SDS011;16450;50.288;10.966;2023-04-30T01:52:03;23.40;;;15.07;;
29500;SDS011;16450;50.288;10.966;2023-04-30T01:56:17;22.67;;;15.60;;
29500;SDS011;16450;50.288;10.966;2023-04-30T01:58:48;22.30;;;15.07;;
29500;SDS011;16450;50.288;10.966;2023-04-30T02:01:52;21.97;;;15.03;;
29500;SDS011;16450;50.288;10.966;2023-04-30T02:04:56;21.07;;;14.83;;
29500;SDS011;16450;50.288;10.966;2023-04-30T02:07:59;21.30;;;15.00;;
29500;SDS011;16450;50.288;10.966;2023-04-30T02:11:01;20.80;;;15.83;;
29500;SDS011;16450;50.288;10.966;2023-04-30T02:14:03;20.97;;;15.40;;
29500;SDS011;16450;50.288;10.966;2023-04-30T02:17:04;23.43;;;14.80;;
29500;SDS011;16450;50.288;10.966;2023-04-30T02:20:07;22.07;;;15.60;;
29500;SDS011;16450;50.288;10.966;2023-04-30T02:23:09;22.83;;;16.23;;
29500;SDS011;16450;50.288;10.966;2023-04-30T02:26:11;22.17;;;16.07;;
29500;SDS011;16450;50.288;10.966;2023-04-30T02:29:13;23.40;;;15.43;;
29500;SDS011;16450;50.288;10.966;2023-04-30T02:32:15;18.97;;;14.97;;
29500;SDS011;16450;50.288;10.966;2023-04-30T02:35:17;22.90;;;14.33;;
29500;SDS011;16450;50.288;10.966;2023-04-30T02:38:19;19.67;;;14.57;;
29500;SDS011;16450;50.288;10.966;2023-04-30T02:41:21;21.23;;;14.90;;
29500;SDS011;16450;50.288;10.966;2023-04-30T02:44:23;21.10;;;15.40;;
29500;SDS011;16450;50.288;10.966;2023-04-30T02:47:25;22.53;;;15.27;;
29500;SDS011;16450;50.288;10.966;2023-04-30T02:50:27;21.37;;;15.70;;
29500;SDS011;16450;50.288;10.966;2023-04-30T02:53:29;24.10;;;15.70;;
29500;SDS011;16450;50.288;10.966;2023-04-30T02:56:31;21.37;;;14.33;;
29500;SDS011;16450;50.288;10.966;2023-04-30T02:59:32;25.70;;;14.53;;
29500;SDS011;16450;50.288;10.966;2023-04-30T03:02:34;22.23;;;13.90;;
29500;SDS011;16450;50.288;10.966;2023-04-30T03:05:36;20.70;;;14.33;;
29500;SDS011;16450;50.288;10.966;2023-04-30T03:08:38;21.03;;;13.50;;
29500;SDS011;16450;50.288;10.966;2023-04-30T03:11:40;20.40;;;14.27;;
29500;SDS011;16450;50.288;10.966;2023-04-30T03:14:42;22.00;;;14.67;;
29500;SDS011;16450;50.288;10.966;2023-04-30T03:17:44;25.70;;;14.90;;
29500;SDS011;16450;50.288;10.966;2023-04-30T03:20:46;23.57;;;14.70;;
29500;SDS011;16450;50.288;10.966;2023-04-30T03:23:48;21.10;;;14.43;;
29500;SDS011;16450;50.288;10.966;2023-04-30T03:26:50;20.47;;;13.97;;
29500;SDS011;16450;50.288;10.966;2023-04-30T03:29:52;23.57;;;13.80;;
29500;SDS011;16450;50.288;10.966;2023-04-30T03:32:55;20.63;;;13.73;;
29500;SDS011;16450;50.288;10.966;2023-04-30T03:35:57;18.57;;;13.53;;
29500;SDS011;16450;50.288;10.966;2023-04-30T03:38:59;20.87;;;14.03;;
29500;SDS011;16450;50.288;10.966;2023-04-30T03:42:02;22.00;;;14.57;;
29500;SDS011;16450;50.288;10.966;2023-04-30T03:45:04;20.90;;;13.90;;
29500;SDS011;16450;50.288;10.966;2023-04-30T03:48:06;20.53;;;13.47;;
29500;SDS011;16450;50.288;10.966;2023-04-30T03:51:08;20.77;;;14.13;;
29500;SDS011;16450;50.288;10.966;2023-04-30T03:54:10;22.27;;;13.80;;
29500;SDS011;16450;50.288;10.966;2023-04-30T03:57:12;22.47;;;13.77;;
29500;SDS011;16450;50.288;10.966;2023-04-30T04:00:14;20.07;;;12.77;;
29500;SDS011;16450;50.288;10.966;2023-04-30T04:03:17;21.90;;;14.83;;
29500;SDS011;16450;50.288;10.966;2023-04-30T04:06:19;19.83;;;14.20;;
29500;SDS011;16450;50.288;10.966;2023-04-30T04:09:21;20.30;;;13.80;;
29500;SDS011;16450;50.288;10.966;2023-04-30T04:12:23;19.57;;;13.50;;
29500;SDS011;16450;50.288;10.966;2023-04-30T04:15:25;19.50;;;13.90;;
29500;SDS011;16450;50.288;10.966;2023-04-30T04:18:27;21.17;;;13.40;;
29500;SDS011;16450;50.288;10.966;2023-04-30T04:21:29;23.20;;;14.13;;
29500;SDS011;16450;50.288;10.966;2023-04-30T04:24:32;21.93;;;14.10;;
29500;SDS011;16450;50.288;10.966;2023-04-30T04:27:34;20.37;;;13.30;;
29500;SDS011;16450;50.288;10.966;2023-04-30T04:30:36;18.60;;;12.53;;
29500;SDS011;16450;50.288;10.966;2023-04-30T04:33:38;20.43;;;13.17;;
29500;SDS011;16450;50.288;10.966;2023-04-30T04:36:40;21.37;;;13.37;;
29500;SDS011;16450;50.288;10.966;2023-04-30T04:39:42;19.10;;;13.23;;
29500;SDS011;16450;50.288;10.966;2023-04-30T04:42:47;19.87;;;14.07;;
29500;SDS011;16450;50.288;10.966;2023-04-30T04:45:51;20.47;;;13.00;;
29500;SDS011;16450;50.288;10.966;2023-04-30T04:48:53;20.20;;;13.63;;
29500;SDS011;16450;50.288;10.966;2023-04-30T04:51:55;18.70;;;13.27;;
29500;SDS011;16450;50.288;10.966;2023-04-30T04:54:57;20.53;;;13.03;;
29500;SDS011;16450;50.288;10.966;2023-04-30T04:58:01;19.50;;;12.73;;
29500;SDS011;16450;50.288;10.966;2023-04-30T05:01:03;20.93;;;13.23;;
29500;SDS011;16450;50.288;10.966;2023-04-30T05:04:07;19.63;;;12.73;;
29500;SDS011;16450;50.288;10.966;2023-04-30T05:07:10;19.03;;;13.13;;
29500;SDS011;16450;50.288;10.966;2023-04-30T05:10:11;21.23;;;13.03;;
29500;SDS011;16450;50.288;10.966;2023-04-30T05:13:13;20.10;;;13.60;;
29500;SDS011;16450;50.288;10.966;2023-04-30T05:16:15;19.87;;;13.10;;
29500;SDS011;16450;50.288;10.966;2023-04-30T05:19:18;19.20;;;13.47;;
29500;SDS011;16450;50.288;10.966;2023-04-30T05:22:20;21.23;;;13.33;;
29500;SDS011;16450;50.288;10.966;2023-04-30T05:25:22;21.57;;;14.33;;
29500;SDS011;16450;50.288;10.966;2023-04-30T05:28:24;20.00;;;15.17;;
29500;SDS011;16450;50.288;10.966;2023-04-30T05:31:26;26.47;;;15.23;;
29500;SDS011;16450;50.288;10.966;2023-04-30T05:34:32;20.00;;;14.10;;
29500;SDS011;16450;50.288;10.966;2023-04-30T05:37:33;22.37;;;13.77;;
29500;SDS011;16450;50.288;10.966;2023-04-30T05:40:35;20.30;;;13.67;;
29500;SDS011;16450;50.288;10.966;2023-04-30T05:43:37;16.53;;;12.90;;
29500;SDS011;16450;50.288;10.966;2023-04-30T05:46:39;17.10;;;12.03;;
29500;SDS011;16450;50.288;10.966;2023-04-30T05:49:41;14.83;;;11.13;;
29500;SDS011;16450;50.288;10.966;2023-04-30T05:52:43;14.20;;;10.03;;
29500;SDS011;16450;50.288;10.966;2023-04-30T05:55:45;12.07;;;9.80;;
29500;SDS011;16450;50.288;10.966;2023-04-30T05:58:47;13.23;;;9.30;;
29500;SDS011;16450;50.288;10.966;2023-04-30T06:01:51;10.75;;;8.63;;
29500;SDS011;16450;50.288;10.966;2023-04-30T06:04:53;11.85;;;8.77;;
29500;SDS011;16450;50.288;10.966;2023-04-30T06:07:56;11.10;;;8.27;;
29500;SDS011;16450;50.288;10.966;2023-04-30T06:10:57;11.10;;;8.77;;
29500;SDS011;16450;50.288;10.966;2023-04-30T06:14:00;12.47;;;8.90;;
29500;SDS011;16450;50.288;10.966;2023-04-30T06:17:03;11.37;;;8.80;;
29500;SDS011;16450;50.288;10.966;2023-04-30T06:20:05;13.73;;;9.87;;
29500;SDS011;16450;50.288;10.966;2023-04-30T06:23:11;13.33;;;10.70;;
29500;SDS011;16450;50.288;10.966;2023-04-30T06:26:12;14.30;;;10.70;;
29500;SDS011;16450;50.288;10.966;2023-04-30T06:29:16;13.20;;;10.47;;
29500;SDS011;16450;50.288;10.966;2023-04-30T06:32:18;13.80;;;11.03;;
29500;SDS011;16450;50.288;10.966;2023-04-30T06:35:19;15.70;;;11.47;;
29500;SDS011;16450;50.288;10.966;2023-04-30T06:38:22;14.20;;;11.23;;
29500;SDS011;16450;50.288;10.966;2023-04-30T06:41:24;13.07;;;10.43;;
29500;SDS011;16450;50.288;10.966;2023-04-30T06:44:26;12.87;;;10.00;;
29500;SDS011;16450;50.288;10.966;2023-04-30T06:47:29;13.23;;;10.07;;
29500;SDS011;16450;50.288;10.966;2023-04-30T06:50:35;13.20;;;10.27;;
29500;SDS011;16450;50.288;10.966;2023-04-30T06:53:44;14.13;;;10.13;;
29500;SDS011;16450;50.288;10.966;2023-04-30T06:56:46;15.60;;;10.43;;
29500;SDS011;16450;50.288;10.966;2023-04-30T06:59:48;14.67;;;10.17;;
29500;SDS011;16450;50.288;10.966;2023-04-30T07:02:50;13.17;;;10.53;;
29500;SDS011;16450;50.288;10.966;2023-04-30T07:05:52;13.23;;;10.37;;
29500;SDS011;16450;50.288;10.966;2023-04-30T07:08:54;14.00;;;10.37;;
29500;SDS011;16450;50.288;10.966;2023-04-30T07:11:57;13.50;;;10.17;;
29500;SDS011;16450;50.288;10.966;2023-04-30T07:14:59;11.77;;;9.27;;
29500;SDS011;16450;50.288;10.966;2023-04-30T07:18:02;11.63;;;9.00;;
29500;SDS011;16450;50.288;10.966;2023-04-30T07:21:04;12.07;;;8.37;;
29500;SDS011;16450;50.288;10.966;2023-04-30T07:24:07;9.60;;;7.93;;
29500;SDS011;16450;50.288;10.966;2023-04-30T07:27:09;9.20;;;6.93;;
29500;SDS011;16450;50.288;10.966;2023-04-30T07:30:12;9.63;;;7.40;;
29500;SDS011;16450;50.288;10.966;2023-04-30T07:33:14;10.90;;;6.80;;
29500;SDS011;16450;50.288;10.966;2023-04-30T07:36:17;9.43;;;6.15;;
29500;SDS011;16450;50.288;10.966;2023-04-30T07:39:18;8.57;;;6.20;;
29500;SDS011;16450;50.288;10.966;2023-04-30T07:42:20;7.68;;;5.63;;
29500;SDS011;16450;50.288;10.966;2023-04-30T07:45:23;8.57;;;5.90;;
29500;SDS011;16450;50.288;10.966;2023-04-30T07:48:25;7.47;;;5.60;;
29500;SDS011;16450;50.288;10.966;2023-04-30T07:51:27;7.00;;;5.43;;
29500;SDS011;16450;50.288;10.966;2023-04-30T07:54:29;6.35;;;5.28;;
29500;SDS011;16450;50.288;10.966;2023-04-30T07:57:31;6.97;;;5.00;;
29500;SDS011;16450;50.288;10.966;2023-04-30T08:00:33;5.13;;;4.57;;
29500;SDS011;16450;50.288;10.966;2023-04-30T08:03:35;5.93;;;4.60;;
29500;SDS011;16450;50.288;10.966;2023-04-30T08:06:37;5.15;;;4.20;;
29500;SDS011;16450;50.288;10.966;2023-04-30T08:09:39;6.07;;;4.82;;
29500;SDS011;16450;50.288;10.966;2023-04-30T08:12:41;4.88;;;4.30;;
29500;SDS011;16450;50.288;10.966;2023-04-30T08:15:43;4.75;;;4.13;;
29500;SDS011;16450;50.288;10.966;2023-04-30T08:18:45;6.28;;;4.38;;
29500;SDS011;16450;50.288;10.966;2023-04-30T08:21:47;5.35;;;4.20;;
29500;SDS011;16450;50.288;10.966;2023-04-30T08:24:48;5.45;;;4.03;;
29500;SDS011;16450;50.288;10.966;2023-04-30T08:27:51;4.68;;;3.95;;
29500;SDS011;16450;50.288;10.966;2023-04-30T08:30:53;4.15;;;3.60;;
29500;SDS011;16450;50.288;10.966;2023-04-30T08:33:55;6.05;;;4.50;;
29500;SDS011;16450;50.288;10.966;2023-04-30T08:36:57;4.85;;;3.75;;
29500;SDS011;16450;50.288;10.966;2023-04-30T08:39:59;4.85;;;3.85;;
29500;SDS011;16450;50.288;10.966;2023-04-30T08:43:05;5.10;;;3.65;;
29500;SDS011;16450;50.288;10.966;2023-04-30T08:46:08;4.22;;;3.80;;
29500;SDS011;16450;50.288;10.966;2023-04-30T08:49:17;4.45;;;3.80;;
29500;SDS011;16450;50.288;10.966;2023-04-30T08:52:19;4.20;;;3.20;;
29500;SDS011;16450;50.288;10.966;2023-04-30T08:55:22;3.47;;;3.15;;
29500;SDS011;16450;50.288;10.966;2023-04-30T08:58:27;4.50;;;3.47;;
29500;SDS011;16450;50.288;10.966;2023-04-30T09:01:29;3.53;;;3.22;;
29500;SDS011;16450;50.288;10.966;2023-04-30T09:04:31;3.53;;;3.22;;
29500;SDS011;16450;50.288;10.966;2023-04-30T09:07:34;4.65;;;3.08;;
29500;SDS011;16450;50.288;10.966;2023-04-30T09:10:37;3.22;;;2.80;;
29500;SDS011;16450;50.288;10.966;2023-04-30T09:13:40;4.43;;;3.30;;
29500;SDS011;16450;50.288;10.966;2023-04-30T09:19:48;2.40;;;2.20;;
29500;SDS011;16450;50.288;10.966;2023-04-30T09:22:50;2.88;;;2.10;;
29500;SDS011;16450;50.288;10.966;2023-04-30T09:26:11;2.38;;;1.70;;
29500;SDS011;16450;50.288;10.966;2023-04-30T09:29:24;3.38;;;1.95;;
29500;SDS011;16450;50.288;10.966;2023-04-30T09:32:53;3.03;;;1.73;;
29500;SDS011;16450;50.288;10.966;2023-04-30T09:35:56;2.45;;;2.25;;
29500;SDS011;16450;50.288;10.966;2023-04-30T09:39:08;1.77;;;1.67;;
29500;SDS011;16450;50.288;10.966;2023-04-30T09:42:16;1.50;;;1.40;;
29500;SDS011;16450;50.288;10.966;2023-04-30T09:45:19;2.55;;;1.40;;
29500;SDS011;16450;50.288;10.966;2023-04-30T09:48:22;2.28;;;1.60;;
29500;SDS011;16450;50.288;10.966;2023-04-30T09:51:25;1.58;;;1.33;;
29500;SDS011;16450;50.288;10.966;2023-04-30T09:54:28;2.83;;;1.30;;
29500;SDS011;16450;50.288;10.966;2023-04-30T09:57:30;2.00;;;1.38;;
29500;SDS011;16450;50.288;10.966;2023-04-30T10:00:37;2.45;;;1.30;;
29500;SDS011;16450;50.288;10.966;2023-04-30T10:03:40;2.00;;;1.30;;
29500;SDS011;16450;50.288;10.966;2023-04-30T10:06:43;1.92;;;1.40;;
29500;SDS011;16450;50.288;10.966;2023-04-30T10:09:48;1.45;;;1.33;;
29500;SDS011;16450;50.288;10.966;2023-04-30T10:12:53;2.25;;;1.60;;
29500;SDS011;16450;50.288;10.966;2023-04-30T10:15:58;2.65;;;1.40;;
29500;SDS011;16450;50.288;10.966;2023-04-30T10:19:17;1.40;;;1.23;;
29500;SDS011;16450;50.288;10.966;2023-04-30T10:22:22;1.40;;;1.17;;
29500;SDS011;16450;50.288;10.966;2023-04-30T10:25:26;0.85;;;0.85;;
29500;SDS011;16450;50.288;10.966;2023-04-30T10:28:29;3.00;;;1.20;;
29500;SDS011;16450;50.288;10.966;2023-04-30T10:31:33;1.60;;;1.10;;
29500;SDS011;16450;50.288;10.966;2023-04-30T10:34:48;2.45;;;1.33;;
29500;SDS011;16450;50.288;10.966;2023-04-30T10:38:03;3.15;;;1.40;;
29500;SDS011;16450;50.288;10.966;2023-04-30T10:41:16;2.05;;;1.52;;
29500;SDS011;16450;50.288;10.966;2023-04-30T10:44:20;1.38;;;1.10;;
29500;SDS011;16450;50.288;10.966;2023-04-30T10:47:27;1.17;;;1.02;;
29500;SDS011;16450;50.288;10.966;2023-04-30T10:50:30;1.52;;;1.38;;
29500;SDS011;16450;50.288;10.966;2023-04-30T10:53:35;1.67;;;1.10;;
29500;SDS011;16450;50.288;10.966;2023-04-30T10:56:40;1.17;;;1.08;;
29500;SDS011;16450;50.288;10.966;2023-04-30T11:03:10;1.58;;;1.45;;
29500;SDS011;16450;50.288;10.966;2023-04-30T11:06:12;2.10;;;1.30;;
29500;SDS011;16450;50.288;10.966;2023-04-30T11:09:15;2.78;;;1.50;;
29500;SDS011;16450;50.288;10.966;2023-04-30T11:12:20;1.55;;;1.15;;
29500;SDS011;16450;50.288;10.966;2023-04-30T11:15:32;1.80;;;1.40;;
29500;SDS011;16450;50.288;10.966;2023-04-30T11:18:45;1.42;;;1.10;;
29500;SDS011;16450;50.288;10.966;2023-04-30T11:25:05;1.67;;;1.20;;
29500;SDS011;16450;50.288;10.966;2023-04-30T11:28:19;1.20;;;1.10;;
29500;SDS011;16450;50.288;10.966;2023-04-30T11:31:30;1.50;;;0.90;;
29500;SDS011;16450;50.288;10.966;2023-04-30T11:34:33;2.10;;;0.93;;
29500;SDS011;16450;50.288;10.966;2023-04-30T11:37:38;1.30;;;1.20;;
29500;SDS011;16450;50.288;10.966;2023-04-30T11:40:44;1.73;;;1.13;;
29500;SDS011;16450;50.288;10.966;2023-04-30T11:43:49;2.90;;;1.07;;
29500;SDS011;16450;50.288;10.966;2023-04-30T11:46:51;2.20;;;1.30;;
29500;SDS011;16450;50.288;10.966;2023-04-30T11:49:55;1.37;;;1.20;;
29500;SDS011;16450;50.288;10.966;2023-04-30T11:52:58;3.27;;;1.30;;
29500;SDS011;16450;50.288;10.966;2023-04-30T11:56:03;2.40;;;1.10;;
29500;SDS011;16450;50.288;10.966;2023-04-30T11:59:09;2.77;;;1.10;;
29500;SDS011;16450;50.288;10.966;2023-04-30T12:02:14;1.63;;;1.10;;
29500;SDS011;16450;50.288;10.966;2023-04-30T12:08:23;4.15;;;1.10;;
29500;SDS011;16450;50.288;10.966;2023-04-30T12:11:29;1.52;;;1.08;;
29500;SDS011;16450;50.288;10.966;2023-04-30T12:14:32;3.08;;;1.00;;
29500;SDS011;16450;50.288;10.966;2023-04-30T12:17:36;2.13;;;1.20;;
29500;SDS011;16450;50.288;10.966;2023-04-30T12:20:38;1.10;;;1.00;;
29500;SDS011;16450;50.288;10.966;2023-04-30T12:23:42;1.45;;;1.10;;
29500;SDS011;16450;50.288;10.966;2023-04-30T12:26:45;2.00;;;1.30;;
29500;SDS011;16450;50.288;10.966;2023-04-30T12:29:48;1.38;;;1.00;;
29500;SDS011;16450;50.288;10.966;2023-04-30T12:32:52;1.23;;;1.00;;
29500;SDS011;16450;50.288;10.966;2023-04-30T12:35:57;2.75;;;1.20;;
29500;SDS011;16450;50.288;10.966;2023-04-30T12:39:00;1.63;;;1.00;;
29500;SDS011;16450;50.288;10.966;2023-04-30T12:42:17;1.80;;;1.10;;
29500;SDS011;16450;50.288;10.966;2023-04-30T12:48:54;1.20;;;1.10;;
29500;SDS011;16450;50.288;10.966;2023-04-30T12:52:01;3.67;;;1.37;;
29500;SDS011;16450;50.288;10.966;2023-04-30T12:55:18;2.03;;;1.10;;
29500;SDS011;16450;50.288;10.966;2023-04-30T12:58:21;2.27;;;1.03;;
29500;SDS011;16450;50.288;10.966;2023-04-30T13:01:23;1.05;;;0.80;;
29500;SDS011;16450;50.288;10.966;2023-04-30T13:04:26;2.53;;;1.00;;
29500;SDS011;16450;50.288;10.966;2023-04-30T13:07:36;4.00;;;0.97;;
29500;SDS011;16450;50.288;10.966;2023-04-30T13:10:41;1.53;;;1.10;;
29500;SDS011;16450;50.288;10.966;2023-04-30T13:13:43;2.23;;;1.10;;
29500;SDS011;16450;50.288;10.966;2023-04-30T13:16:45;1.30;;;0.90;;
29500;SDS011;16450;50.288;10.966;2023-04-30T13:19:47;1.87;;;1.00;;
29500;SDS011;16450;50.288;10.966;2023-04-30T13:22:50;2.83;;;1.07;;
29500;SDS011;16450;50.288;10.966;2023-04-30T13:25:52;2.43;;;1.00;;
29500;SDS011;16450;50.288;10.966;2023-04-30T13:28:54;2.17;;;1.10;;
29500;SDS011;16450;50.288;10.966;2023-04-30T13:31:56;3.20;;;0.93;;
29500;SDS011;16450;50.288;10.966;2023-04-30T13:34:58;1.67;;;0.90;;
29500;SDS011;16450;50.288;10.966;2023-04-30T13:38:00;1.90;;;0.83;;
29500;SDS011;16450;50.288;10.966;2023-04-30T13:41:02;3.33;;;0.93;;
29500;SDS011;16450;50.288;10.966;2023-04-30T13:44:05;2.60;;;1.83;;
29500;SDS011;16450;50.288;10.966;2023-04-30T13:47:07;1.93;;;1.10;;
29500;SDS011;16450;50.288;10.966;2023-04-30T13:50:10;1.63;;;1.00;;
29500;SDS011;16450;50.288;10.966;2023-04-30T13:53:13;1.97;;;0.97;;
29500;SDS011;16450;50.288;10.966;2023-04-30T13:56:15;2.53;;;1.00;;
29500;SDS011;16450;50.288;10.966;2023-04-30T13:59:17;1.23;;;0.83;;
29500;SDS011;16450;50.288;10.966;2023-04-30T14:02:19;2.07;;;1.00;;
29500;SDS011;16450;50.288;10.966;2023-04-30T14:05:21;1.30;;;0.90;;
29500;SDS011;16450;50.288;10.966;2023-04-30T14:08:23;1.33;;;1.03;;
29500;SDS011;16450;50.288;10.966;2023-04-30T14:11:25;1.73;;;0.90;;
29500;SDS011;16450;50.288;10.966;2023-04-30T14:14:27;2.17;;;0.93;;
29500;SDS011;16450;50.288;10.966;2023-04-30T14:17:30;1.00;;;0.90;;
29500;SDS011;16450;50.288;10.966;2023-04-30T14:20:32;1.77;;;0.90;;
29500;SDS011;16450;50.288;10.966;2023-04-30T14:23:33;1.63;;;0.90;;
29500;SDS011;16450;50.288;10.966;2023-04-30T14:26:35;1.70;;;0.90;;
29500;SDS011;16450;50.288;10.966;2023-04-30T14:29:37;3.27;;;1.27;;
29500;SDS011;16450;50.288;10.966;2023-04-30T14:32:39;1.93;;;0.93;;
29500;SDS011;16450;50.288;10.966;2023-04-30T14:35:41;2.33;;;1.00;;
29500;SDS011;16450;50.288;10.966;2023-04-30T14:38:43;4.13;;;0.80;;
29500;SDS011;16450;50.288;10.966;2023-04-30T14:41:45;0.97;;;0.90;;
29500;SDS011;16450;50.288;10.966;2023-04-30T14:44:50;1.70;;;0.90;;
29500;SDS011;16450;50.288;10.966;2023-04-30T14:47:53;1.27;;;0.80;;
29500;SDS011;16450;50.288;10.966;2023-04-30T14:50:55;0.93;;;0.80;;
29500;SDS011;16450;50.288;10.966;2023-04-30T14:53:57;1.37;;;0.83;;
29500;SDS011;16450;50.288;10.966;2023-04-30T14:56:59;2.77;;;0.90;;
29500;SDS011;16450;50.288;10.966;2023-04-30T15:00:01;2.10;;;0.90;;
29500;SDS011;16450;50.288;10.966;2023-04-30T15:03:04;2.40;;;0.80;;
29500;SDS011;16450;50.288;10.966;2023-04-30T15:06:06;1.20;;;0.77;;
29500;SDS011;16450;50.288;10.966;2023-04-30T15:09:08;3.17;;;1.10;;
29500;SDS011;16450;50.288;10.966;2023-04-30T15:12:14;2.03;;;0.80;;
29500;SDS011;16450;50.288;10.966;2023-04-30T15:15:16;0.87;;;0.70;;
29500;SDS011;16450;50.288;10.966;2023-04-30T15:18:19;1.77;;;0.80;;
29500;SDS011;16450;50.288;10.966;2023-04-30T15:21:21;1.20;;;0.80;;
29500;SDS011;16450;50.288;10.966;2023-04-30T15:24:23;1.10;;;1.00;;
29500;SDS011;16450;50.288;10.966;2023-04-30T15:27:28;1.70;;;0.90;;
29500;SDS011;16450;50.288;10.966;2023-04-30T15:30:33;1.33;;;1.00;;
29500;SDS011;16450;50.288;10.966;2023-04-30T15:33:35;2.07;;;0.97;;
29500;SDS011;16450;50.288;10.966;2023-04-30T15:36:41;2.93;;;1.03;;
29500;SDS011;16450;50.288;10.966;2023-04-30T15:39:43;2.13;;;1.03;;
29500;SDS011;16450;50.288;10.966;2023-04-30T15:42:49;0.80;;;0.80;;
29500;SDS011;16450;50.288;10.966;2023-04-30T15:45:51;2.00;;;0.80;;
29500;SDS011;16450;50.288;10.966;2023-04-30T15:48:54;1.17;;;0.83;;
29500;SDS011;16450;50.288;10.966;2023-04-30T15:51:57;2.10;;;0.60;;
29500;SDS011;16450;50.288;10.966;2023-04-30T15:54:58;3.60;;;0.90;;
29500;SDS011;16450;50.288;10.966;2023-04-30T15:58:00;1.20;;;0.90;;
29500;SDS011;16450;50.288;10.966;2023-04-30T16:01:06;1.63;;;1.07;;
29500;SDS011;16450;50.288;10.966;2023-04-30T16:04:09;2.97;;;1.07;;
29500;SDS011;16450;50.288;10.966;2023-04-30T16:07:12;2.07;;;1.10;;
29500;SDS011;16450;50.288;10.966;2023-04-30T16:10:14;1.33;;;0.97;;
29500;SDS011;16450;50.288;10.966;2023-04-30T16:13:16;2.97;;;0.90;;
29500;SDS011;16450;50.288;10.966;2023-04-30T16:16:18;3.17;;;1.00;;
29500;SDS011;16450;50.288;10.966;2023-04-30T16:19:20;2.70;;;1.20;;
29500;SDS011;16450;50.288;10.966;2023-04-30T16:22:22;2.20;;;1.00;;
29500;SDS011;16450;50.288;10.966;2023-04-30T16:25:24;2.70;;;1.00;;
29500;SDS011;16450;50.288;10.966;2023-04-30T16:28:26;3.27;;;1.23;;
29500;SDS011;16450;50.288;10.966;2023-04-30T16:31:29;1.97;;;1.20;;
29500;SDS011;16450;50.288;10.966;2023-04-30T16:34:31;1.30;;;1.00;;
29500;SDS011;16450;50.288;10.966;2023-04-30T16:37:32;2.73;;;1.30;;
29500;SDS011;16450;50.288;10.966;2023-04-30T16:40:37;2.73;;;1.23;;
29500;SDS011;16450;50.288;10.966;2023-04-30T16:43:39;2.63;;;1.23;;
29500;SDS011;16450;50.288;10.966;2023-04-30T16:46:41;1.27;;;1.00;;
29500;SDS011;16450;50.288;10.966;2023-04-30T16:49:43;2.23;;;1.00;;
29500;SDS011;16450;50.288;10.966;2023-04-30T16:52:45;1.97;;;1.07;;
29500;SDS011;16450;50.288;10.966;2023-04-30T16:55:47;2.17;;;1.00;;
29500;SDS011;16450;50.288;10.966;2023-04-30T16:58:51;1.90;;;0.97;;
29500;SDS011;16450;50.288;10.966;2023-04-30T17:01:53;1.47;;;0.83;;
29500;SDS011;16450;50.288;10.966;2023-04-30T17:04:58;1.70;;;0.87;;
29500;SDS011;16450;50.288;10.966;2023-04-30T17:08:00;3.10;;;1.00;;
29500;SDS011;16450;50.288;10.966;2023-04-30T17:11:03;3.53;;;1.10;;
29500;SDS011;16450;50.288;10.966;2023-04-30T17:14:05;2.70;;;0.93;;
29500;SDS011;16450;50.288;10.966;2023-04-30T17:17:06;1.53;;;1.10;;
29500;SDS011;16450;50.288;10.966;2023-04-30T17:20:08;1.50;;;1.00;;
29500;SDS011;16450;50.288;10.966;2023-04-30T17:23:11;1.50;;;1.00;;
29500;SDS011;16450;50.288;10.966;2023-04-30T17:26:12;1.63;;;0.80;;
29500;SDS011;16450;50.288;10.966;2023-04-30T17:29:14;0.80;;;0.80;;
29500;SDS011;16450;50.288;10.966;2023-04-30T17:32:16;1.40;;;1.07;;
29500;SDS011;16450;50.288;10.966;2023-04-30T17:35:19;1.73;;;1.00;;
29500;SDS011;16450;50.288;10.966;2023-04-30T17:38:22;5.17;;;1.47;;
29500;SDS011;16450;50.288;10.966;2023-04-30T17:41:24;2.73;;;1.00;;
29500;SDS011;16450;50.288;10.966;2023-04-30T17:44:26;2.40;;;0.93;;
29500;SDS011;16450;50.288;10.966;2023-04-30T17:47:28;1.93;;;1.10;;
29500;SDS011;16450;50.288;10.966;2023-04-30T17:50:30;3.20;;;0.97;;
29500;SDS011;16450;50.288;10.966;2023-04-30T17:53:32;3.73;;;1.20;;
29500;SDS011;16450;50.288;10.966;2023-04-30T17:56:34;2.50;;;1.20;;
29500;SDS011;16450;50.288;10.966;2023-04-30T17:59:36;1.33;;;1.03;;
29500;SDS011;16450;50.288;10.966;2023-04-30T18:02:39;1.33;;;1.00;;
29500;SDS011;16450;50.288;10.966;2023-04-30T18:05:41;2.30;;;1.10;;
29500;SDS011;16450;50.288;10.966;2023-04-30T18:08:43;1.50;;;1.30;;
29500;SDS011;16450;50.288;10.966;2023-04-30T18:11:45;3.97;;;2.37;;
29500;SDS011;16450;50.288;10.966;2023-04-30T18:14:47;3.47;;;2.63;;
29500;SDS011;16450;50.288;10.966;2023-04-30T18:17:49;7.60;;;4.30;;
29500;SDS011;16450;50.288;10.966;2023-04-30T18:20:51;5.83;;;3.70;;
29500;SDS011;16450;50.288;10.966;2023-04-30T18:23:53;4.93;;;2.83;;
29500;SDS011;16450;50.288;10.966;2023-04-30T18:26:55;4.37;;;2.63;;